createdAt,value
2017-11-24T00:02:01.406Z,15.47
2017-11-24T00:04:29.270Z,13.77
2017-11-24T00:06:57.172Z,8.23
2017-11-24T00:09:25.044Z,10.70
2017-11-24T00:11:52.914Z,10.93
2017-11-24T00:14:20.767Z,13.03
2017-11-24T00:16:48.660Z,14.53
2017-11-24T00:19:16.814Z,12.63
2017-11-24T00:21:44.781Z,16.97
2017-11-24T00:24:12.777Z,19.03
2017-11-24T00:26:40.795Z,15.50
2017-11-24T00:29:08.640Z,19.80
2017-11-24T00:31:36.538Z,13.73
2017-11-24T00:34:04.410Z,16.73
2017-11-24T00:36:32.596Z,15.00
2017-11-24T00:39:00.555Z,28.97
2017-11-24T00:41:28.477Z,28.30
2017-11-24T00:43:56.315Z,19.23
2017-11-24T00:46:24.178Z,12.03
2017-11-24T00:48:52.015Z,15.67
2017-11-24T00:51:19.885Z,15.70
2017-11-24T00:53:47.776Z,11.27
2017-11-24T00:56:15.740Z,21.20
2017-11-24T00:58:44.218Z,12.97
2017-11-24T01:01:12.141Z,10.83
2017-11-24T01:03:40.221Z,14.17
2017-11-24T01:06:09.411Z,12.97
2017-11-24T01:08:38.880Z,20.93
2017-11-24T01:11:06.756Z,16.60
2017-11-24T01:13:34.641Z,19.00
2017-11-24T01:16:02.563Z,27.33
2017-11-24T01:18:30.419Z,17.63
2017-11-24T01:20:58.309Z,21.33
2017-11-24T01:23:26.212Z,24.10
2017-11-24T01:25:54.101Z,12.70
2017-11-24T01:28:21.947Z,18.90
2017-11-24T01:30:49.793Z,25.33
2017-11-24T01:33:17.657Z,14.40
2017-11-24T01:35:45.640Z,14.70
2017-11-24T01:38:13.553Z,21.60
2017-11-24T01:40:41.458Z,14.73
2017-11-24T01:43:09.329Z,11.63
2017-11-24T01:45:37.190Z,11.00
2017-11-24T01:48:05.049Z,11.40
2017-11-24T01:50:33.028Z,10.80
2017-11-24T01:53:01.309Z,12.40
2017-11-24T01:55:29.347Z,17.17
2017-11-24T01:57:57.225Z,11.60
2017-11-24T02:00:25.510Z,12.13
2017-11-24T02:02:53.472Z,14.73
2017-11-24T02:05:21.356Z,15.47
2017-11-24T02:07:49.245Z,11.83
2017-11-24T02:10:17.247Z,12.40
2017-11-24T02:12:45.151Z,15.40
2017-11-24T02:15:13.008Z,17.40
2017-11-24T02:17:41.451Z,10.03
2017-11-24T02:20:09.671Z,10.73
2017-11-24T02:22:37.584Z,18.43
2017-11-24T02:25:05.512Z,15.23
2017-11-24T02:27:33.610Z,12.10
2017-11-24T02:30:01.483Z,13.33
2017-11-24T02:32:29.385Z,13.10
2017-11-24T02:34:57.321Z,13.37
2017-11-24T02:37:25.206Z,10.73
2017-11-24T02:39:53.050Z,13.90
2017-11-24T02:42:21.107Z,9.87
2017-11-24T02:44:49.524Z,10.60
2017-11-24T02:47:19.446Z,13.90
2017-11-24T02:49:47.356Z,13.30
2017-11-24T02:52:15.296Z,10.30
2017-11-24T02:54:43.214Z,14.70
2017-11-24T02:57:11.389Z,11.13
2017-11-24T02:59:39.382Z,15.60
2017-11-24T03:02:07.322Z,10.60
2017-11-24T03:04:35.276Z,15.73
2017-11-24T03:07:03.164Z,13.93
2017-11-24T03:09:31.004Z,17.63
2017-11-24T03:11:58.962Z,42.00
2017-11-24T03:14:26.849Z,54.33
2017-11-24T03:16:54.720Z,62.77
2017-11-24T03:19:22.586Z,48.77
2017-11-24T03:21:50.446Z,36.03
2017-11-24T03:24:18.709Z,39.10
2017-11-24T03:26:46.620Z,34.30
2017-11-24T03:29:14.487Z,27.00
2017-11-24T03:31:42.348Z,45.80
2017-11-24T03:34:10.221Z,25.70
2017-11-24T03:36:38.194Z,24.40
2017-11-24T03:39:06.109Z,27.63
2017-11-24T03:41:33.978Z,21.10
2017-11-24T03:44:01.817Z,15.27
2017-11-24T03:46:29.817Z,15.57
2017-11-24T03:48:57.740Z,13.03
2017-11-24T03:51:25.589Z,17.33
2017-11-24T03:53:53.486Z,18.43
2017-11-24T03:56:21.394Z,13.33
2017-11-24T03:58:49.465Z,13.37
2017-11-24T04:01:17.324Z,13.30
2017-11-24T04:03:45.235Z,13.10
2017-11-24T04:06:13.138Z,14.07
2017-11-24T04:08:41.014Z,10.47
2017-11-24T04:11:08.892Z,18.07
2017-11-24T04:13:36.733Z,10.73
2017-11-24T04:16:04.587Z,12.00
2017-11-24T04:18:32.485Z,10.83
2017-11-24T04:21:00.335Z,10.20
2017-11-24T04:23:28.200Z,12.13
2017-11-24T04:25:56.108Z,13.60
2017-11-24T04:28:23.937Z,11.57
2017-11-24T04:30:51.802Z,12.27
2017-11-24T04:33:19.683Z,12.07
2017-11-24T04:35:47.559Z,15.67
2017-11-24T04:38:15.487Z,8.93
2017-11-24T04:40:43.423Z,13.43
2017-11-24T04:43:11.269Z,11.40
2017-11-24T04:45:39.129Z,15.17
2017-11-24T04:48:07.040Z,13.67
2017-11-24T04:50:34.889Z,11.57
2017-11-24T04:53:02.724Z,12.70
2017-11-24T04:55:30.588Z,13.30
2017-11-24T04:57:58.511Z,15.30
2017-11-24T05:00:26.594Z,11.90
2017-11-24T05:02:54.497Z,11.80
2017-11-24T05:05:22.378Z,10.30
2017-11-24T05:07:50.241Z,10.00
2017-11-24T05:10:18.152Z,10.53
2017-11-24T05:12:45.989Z,13.47
2017-11-24T05:15:13.849Z,13.93
2017-11-24T05:17:41.726Z,9.87
2017-11-24T05:20:09.672Z,12.27
2017-11-24T05:22:37.554Z,13.00
2017-11-24T05:25:05.439Z,15.13
2017-11-24T05:27:33.292Z,10.73
2017-11-24T05:30:01.141Z,12.07
2017-11-24T05:32:29.040Z,16.67
2017-11-24T05:34:56.899Z,10.67
2017-11-24T05:37:24.747Z,14.97
2017-11-24T05:39:52.906Z,15.00
2017-11-24T05:42:21.153Z,14.17
2017-11-24T05:44:49.028Z,14.50
2017-11-24T05:47:16.893Z,11.97
2017-11-24T05:49:44.774Z,12.30
2017-11-24T05:52:12.645Z,10.30
2017-11-24T05:54:40.514Z,18.20
2017-11-24T05:57:08.381Z,14.27
2017-11-24T05:59:36.222Z,16.10
2017-11-24T06:02:04.151Z,14.33
2017-11-24T06:04:32.013Z,12.43
2017-11-24T06:06:59.941Z,13.17
2017-11-24T06:09:27.834Z,19.03
2017-11-24T06:11:55.710Z,12.63
2017-11-24T06:14:23.705Z,11.80
2017-11-24T06:16:51.610Z,13.20
2017-11-24T06:19:19.471Z,13.33
2017-11-24T06:21:47.300Z,13.40
2017-11-24T06:24:15.250Z,15.30
2017-11-24T06:26:43.341Z,12.40
2017-11-24T06:29:11.190Z,14.27
2017-11-24T06:31:39.074Z,13.27
2017-11-24T06:34:06.942Z,12.97
2017-11-24T06:36:34.794Z,13.77
2017-11-24T06:39:02.668Z,14.43
2017-11-24T06:41:30.725Z,14.57
2017-11-24T06:43:58.604Z,13.53
2017-11-24T06:46:26.494Z,13.30
2017-11-24T06:48:54.430Z,9.97
2017-11-24T06:51:22.278Z,12.57
2017-11-24T06:53:50.228Z,13.03
2017-11-24T06:56:18.129Z,11.60
2017-11-24T06:58:45.962Z,14.53
2017-11-24T07:01:13.888Z,14.17
2017-11-24T07:03:41.766Z,10.93
2017-11-24T07:06:09.634Z,13.53
2017-11-24T07:08:37.503Z,15.20
2017-11-24T07:11:05.353Z,16.33
2017-11-24T07:13:33.310Z,11.23
2017-11-24T07:16:01.221Z,14.90
2017-11-24T07:18:29.154Z,18.23
2017-11-24T07:20:56.993Z,12.70
2017-11-24T07:23:24.874Z,12.63
2017-11-24T07:25:52.787Z,19.10
2017-11-24T07:28:20.654Z,11.97
2017-11-24T07:30:48.534Z,12.03
2017-11-24T07:33:16.386Z,13.53
2017-11-24T07:35:44.228Z,13.70
2017-11-24T07:38:12.205Z,12.10
2017-11-24T07:40:40.093Z,17.50
2017-11-24T07:43:07.942Z,18.43
2017-11-24T07:45:35.817Z,9.20
2017-11-24T07:48:03.718Z,19.53
2017-11-24T07:50:31.821Z,18.53
2017-11-24T07:52:59.762Z,10.53
2017-11-24T07:55:27.621Z,14.57
2017-11-24T07:57:55.480Z,14.73
2017-11-24T08:00:23.355Z,21.93
2017-11-24T08:02:52.259Z,20.73
2017-11-24T08:05:20.119Z,11.33
2017-11-24T08:07:48.211Z,13.97
2017-11-24T08:10:16.164Z,14.30
2017-11-24T08:12:44.047Z,13.80
2017-11-24T08:15:11.917Z,14.53
2017-11-24T08:17:39.764Z,10.33
2017-11-24T08:20:07.622Z,12.03
2017-11-24T08:22:35.557Z,8.10
2017-11-24T08:25:03.415Z,19.03
2017-11-24T08:27:31.462Z,11.17
2017-11-24T08:30:00.162Z,13.23
2017-11-24T08:32:28.002Z,15.20
2017-11-24T08:34:55.885Z,10.43
2017-11-24T08:37:23.890Z,10.10
2017-11-24T08:39:51.862Z,12.43
2017-11-24T08:42:19.767Z,12.73
2017-11-24T08:44:47.693Z,13.23
2017-11-24T08:47:21.752Z,15.53
2017-11-24T08:49:49.690Z,16.93
2017-11-24T08:52:17.543Z,12.40
2017-11-24T08:54:45.381Z,13.13
2017-11-24T08:57:13.263Z,12.17
2017-11-24T08:59:41.198Z,14.80
2017-11-24T09:02:09.097Z,15.20
2017-11-24T09:04:36.969Z,14.67
2017-11-24T09:07:04.943Z,12.33
2017-11-24T09:09:32.832Z,17.37
2017-11-24T09:12:00.754Z,16.10
2017-11-24T09:14:28.663Z,10.63
2017-11-24T09:16:56.583Z,9.77
2017-11-24T09:19:24.471Z,22.50
2017-11-24T09:21:52.337Z,12.60
2017-11-24T09:24:20.204Z,11.20
2017-11-24T09:26:48.114Z,12.37
2017-11-24T09:29:16.055Z,11.20
2017-11-24T09:31:44.134Z,13.10
2017-11-24T09:34:12.060Z,9.57
2017-11-24T09:36:39.934Z,10.27
2017-11-24T09:39:07.936Z,15.33
2017-11-24T09:41:35.826Z,10.93
2017-11-24T09:44:03.693Z,9.40
2017-11-24T09:46:31.739Z,15.57
2017-11-24T09:48:59.674Z,10.77
2017-11-24T09:51:27.623Z,11.60
2017-11-24T09:53:55.481Z,13.40
2017-11-24T09:56:23.390Z,9.77
2017-11-24T09:58:51.260Z,10.93
2017-11-24T10:01:19.106Z,10.20
2017-11-24T10:03:47.037Z,11.10
2017-11-24T10:06:14.899Z,12.40
2017-11-24T10:08:42.987Z,16.63
2017-11-24T10:11:10.882Z,9.30
2017-11-24T10:13:38.724Z,9.50
2017-11-24T10:16:06.661Z,8.10
2017-11-24T10:18:34.550Z,8.73
2017-11-24T10:21:08.566Z,8.00
2017-11-24T10:23:36.454Z,8.73
2017-11-24T10:26:04.308Z,10.93
2017-11-24T10:28:32.244Z,16.03
2017-11-24T10:31:00.160Z,5.87
2017-11-24T10:33:28.027Z,11.50
2017-11-24T10:35:55.879Z,7.47
2017-11-24T10:38:23.805Z,9.70
2017-11-24T10:40:51.640Z,8.23
2017-11-24T10:43:19.460Z,9.23
2017-11-24T10:45:47.415Z,6.30
2017-11-24T10:48:15.314Z,6.90
2017-11-24T10:50:43.169Z,14.87
2017-11-24T10:53:11.526Z,13.67
2017-11-24T10:55:39.417Z,10.50
2017-11-24T10:58:07.318Z,6.50
2017-11-24T11:00:35.274Z,10.97
2017-11-24T11:03:03.125Z,6.80
2017-11-24T11:05:30.957Z,7.93
2017-11-24T11:07:58.864Z,8.23
2017-11-24T11:10:26.726Z,8.50
2017-11-24T11:12:54.653Z,11.83
2017-11-24T11:15:23.066Z,25.23
2017-11-24T11:17:51.065Z,10.93
2017-11-24T11:20:18.901Z,8.10
2017-11-24T11:22:46.774Z,11.43
2017-11-24T11:25:14.622Z,10.60
2017-11-24T11:27:42.515Z,7.50
2017-11-24T11:30:10.431Z,13.37
2017-11-24T11:32:38.312Z,8.23
2017-11-24T11:35:06.293Z,9.17
2017-11-24T11:37:34.196Z,10.43
2017-11-24T11:40:02.048Z,8.93
2017-11-24T11:42:29.938Z,11.37
2017-11-24T11:44:57.819Z,8.83
2017-11-24T11:47:25.666Z,9.33
2017-11-24T11:49:53.501Z,7.40
2017-11-24T11:52:21.357Z,12.23
2017-11-24T11:54:49.184Z,10.60
2017-11-24T11:57:18.007Z,11.20
2017-11-24T11:59:45.864Z,15.20
2017-11-24T12:02:13.708Z,10.20
2017-11-24T12:04:42.048Z,9.77
2017-11-24T12:07:10.022Z,10.43
2017-11-24T12:09:38.110Z,7.73
2017-11-24T12:12:06.202Z,11.67
2017-11-24T12:14:34.274Z,11.63
2017-11-24T12:17:03.637Z,12.20
2017-11-24T12:19:31.502Z,11.67
2017-11-24T12:21:59.372Z,11.90
2017-11-24T12:24:28.290Z,14.73
2017-11-24T12:26:56.125Z,9.50
2017-11-24T12:29:24.066Z,14.10
2017-11-24T12:31:52.031Z,11.00
2017-11-24T12:34:19.935Z,10.90
2017-11-24T12:36:48.206Z,15.97
2017-11-24T12:39:16.066Z,14.10
2017-11-24T12:41:43.970Z,11.50
2017-11-24T12:44:11.951Z,11.37
2017-11-24T12:46:39.824Z,14.77
2017-11-24T12:49:07.677Z,10.10
2017-11-24T12:51:35.632Z,10.33
2017-11-24T12:54:03.498Z,11.93
2017-11-24T12:56:31.818Z,12.57
2017-11-24T12:58:59.713Z,9.47
2017-11-24T13:01:27.557Z,12.17
2017-11-24T13:03:55.416Z,15.33
2017-11-24T13:06:23.334Z,12.93
2017-11-24T13:08:51.279Z,13.73
2017-11-24T13:11:19.166Z,12.80
2017-11-24T13:13:47.043Z,9.57
2017-11-24T13:16:14.985Z,7.70
2017-11-24T13:18:42.888Z,5.17
2017-11-24T13:21:10.788Z,7.83
2017-11-24T13:23:38.650Z,6.53
2017-11-24T13:26:06.537Z,6.60
2017-11-24T13:28:34.866Z,6.03
2017-11-24T13:31:02.702Z,4.63
2017-11-24T13:33:30.640Z,5.33
2017-11-24T13:35:58.575Z,6.00
2017-11-24T13:38:26.435Z,8.43
2017-11-24T13:40:55.237Z,6.10
2017-11-24T13:43:23.106Z,3.50
2017-11-24T13:45:51.214Z,5.97
2017-11-24T13:48:19.143Z,7.47
2017-11-24T13:50:46.999Z,9.53
2017-11-24T13:53:14.877Z,5.37
2017-11-24T13:55:42.882Z,14.03
2017-11-24T13:58:10.881Z,4.63
2017-11-24T14:00:38.764Z,5.30
2017-11-24T14:03:06.663Z,6.30
2017-11-24T14:05:34.632Z,9.83
2017-11-24T14:08:02.503Z,4.43
2017-11-24T14:10:30.387Z,5.60
2017-11-24T14:12:58.268Z,6.87
2017-11-24T14:15:26.130Z,7.87
2017-11-24T14:17:54.107Z,10.40
2017-11-24T14:20:21.992Z,6.00
2017-11-24T14:22:49.978Z,6.50
2017-11-24T14:25:17.875Z,8.40
2017-11-24T14:27:45.825Z,9.77
2017-11-24T14:30:13.816Z,9.00
2017-11-24T14:32:41.846Z,10.57
2017-11-24T14:35:09.725Z,8.43
2017-11-24T14:37:37.684Z,12.40
2017-11-24T14:40:05.569Z,13.87
2017-11-24T14:42:34.301Z,18.57
2017-11-24T14:45:02.177Z,14.33
2017-11-24T14:47:30.067Z,18.40
2017-11-24T14:49:57.993Z,16.10
2017-11-24T14:52:25.974Z,13.43
2017-11-24T14:54:53.838Z,14.50
2017-11-24T14:57:21.761Z,16.90
2017-11-24T14:59:49.640Z,14.20
2017-11-24T15:02:17.503Z,13.27
2017-11-24T15:04:45.461Z,21.63
2017-11-24T15:07:13.364Z,17.93
2017-11-24T15:09:41.290Z,12.80
2017-11-24T15:12:09.232Z,20.30
2017-11-24T15:14:37.133Z,18.07
2017-11-24T15:17:05.042Z,17.00
2017-11-24T15:19:32.936Z,12.50
2017-11-24T15:22:00.776Z,11.10
2017-11-24T15:24:28.683Z,12.70
2017-11-24T15:26:56.588Z,15.10
2017-11-24T15:29:24.454Z,11.17
2017-11-24T15:31:52.334Z,11.40
2017-11-24T15:34:20.200Z,10.43
2017-11-24T15:36:48.092Z,9.90
2017-11-24T15:39:15.976Z,18.30
2017-11-24T15:41:43.928Z,11.93
2017-11-24T15:44:11.807Z,16.50
2017-11-24T15:46:40.398Z,13.73
2017-11-24T15:49:08.289Z,31.47
2017-11-24T15:51:36.149Z,11.80
2017-11-24T15:54:04.037Z,14.60
2017-11-24T15:56:31.909Z,14.97
2017-11-24T15:58:59.757Z,12.13
2017-11-24T16:01:27.926Z,14.13
2017-11-24T16:03:55.988Z,13.53
2017-11-24T16:06:23.927Z,13.23
2017-11-24T16:08:51.958Z,20.70
2017-11-24T16:11:20.874Z,17.63
2017-11-24T16:13:48.794Z,19.23
2017-11-24T16:16:16.693Z,11.47
2017-11-24T16:18:44.821Z,12.83
2017-11-24T16:21:13.525Z,31.67
2017-11-24T16:23:41.516Z,21.30
2017-11-24T16:26:09.490Z,19.70
2017-11-24T16:28:38.322Z,18.97
2017-11-24T16:31:06.199Z,19.20
2017-11-24T16:33:34.173Z,16.30
2017-11-24T16:36:02.060Z,23.37
2017-11-24T16:38:30.033Z,13.83
2017-11-24T16:40:57.922Z,16.60
2017-11-24T16:43:26.864Z,17.43
2017-11-24T16:45:54.716Z,15.37
2017-11-24T16:48:22.598Z,14.00
2017-11-24T16:50:50.578Z,18.50
2017-11-24T16:53:18.514Z,23.27
2017-11-24T16:55:46.432Z,22.07
2017-11-24T16:58:14.360Z,17.80
2017-11-24T17:00:42.229Z,13.87
2017-11-24T17:03:10.113Z,18.30
2017-11-24T17:05:38.194Z,18.03
2017-11-24T17:08:06.109Z,15.70
2017-11-24T17:10:34.417Z,19.30
2017-11-24T17:13:02.397Z,12.70
2017-11-24T17:15:30.301Z,13.73
2017-11-24T17:17:58.218Z,16.23
2017-11-24T17:20:26.205Z,10.87
2017-11-24T17:22:54.148Z,13.20
2017-11-24T17:25:22.119Z,19.00
2017-11-24T17:27:50.074Z,16.40
2017-11-24T17:30:18.142Z,16.13
2017-11-24T17:32:46.090Z,12.63
2017-11-24T17:35:14.074Z,13.27
2017-11-24T17:37:42.107Z,24.20
2017-11-24T17:40:10.368Z,18.67
2017-11-24T17:42:38.248Z,24.23
2017-11-24T17:45:06.156Z,17.10
2017-11-24T17:47:34.033Z,20.27
2017-11-24T17:50:01.994Z,26.40
2017-11-24T17:52:29.987Z,22.47
2017-11-24T17:54:57.892Z,25.97
2017-11-24T17:57:25.850Z,22.40
2017-11-24T17:59:53.751Z,35.70
2017-11-24T18:02:21.750Z,17.33
2017-11-24T18:04:49.599Z,29.03
2017-11-24T18:07:18.981Z,23.03
2017-11-24T18:09:47.871Z,27.50
2017-11-24T18:12:16.152Z,17.37
2017-11-24T18:14:44.082Z,22.23
2017-11-24T18:17:13.109Z,34.43
2017-11-24T18:20:07.193Z,24.47
2017-11-24T18:22:37.638Z,30.60
2017-11-24T18:25:06.588Z,22.93
2017-11-24T18:27:34.558Z,25.60
2017-11-24T18:30:03.457Z,32.20
2017-11-24T18:35:14.228Z,32.50
2017-11-24T18:37:47.262Z,37.87
2017-11-24T18:40:16.878Z,40.43
2017-11-24T18:42:45.659Z,30.20
2017-11-24T18:45:15.840Z,40.83
2017-11-24T18:47:46.245Z,33.13
2017-11-24T18:50:14.615Z,41.97
2017-11-24T18:52:43.035Z,38.83
2017-11-24T18:55:12.374Z,30.53
2017-11-24T18:57:40.665Z,45.97
2017-11-24T19:00:08.610Z,29.23
2017-11-24T19:02:36.980Z,37.27
2017-11-24T19:05:07.654Z,24.87
2017-11-24T19:07:37.164Z,35.13
2017-11-24T19:10:06.166Z,30.67
2017-11-24T19:12:35.109Z,18.83
2017-11-24T19:15:04.988Z,22.83
2017-11-24T19:17:33.000Z,144.93
2017-11-24T19:20:00.902Z,69.03
2017-11-24T19:22:29.896Z,35.23
2017-11-24T19:24:58.426Z,18.07
2017-11-24T19:27:26.432Z,32.40
2017-11-24T19:29:54.396Z,41.23
2017-11-24T19:32:24.968Z,24.47
2017-11-24T19:34:54.112Z,25.30
2017-11-24T19:37:22.080Z,20.80
2017-11-24T19:39:50.017Z,32.93
2017-11-24T19:42:18.139Z,32.63
2017-11-24T19:44:46.100Z,28.43
2017-11-24T19:47:13.993Z,35.70
2017-11-24T19:49:41.905Z,28.20
2017-11-24T19:52:14.418Z,29.93
2017-11-24T19:54:42.567Z,33.83
2017-11-24T19:57:13.845Z,28.23
2017-11-24T19:59:41.806Z,31.03
2017-11-24T20:02:09.713Z,27.97
2017-11-24T20:04:37.679Z,30.03
2017-11-24T20:07:05.722Z,35.70
2017-11-24T20:09:33.597Z,30.73
2017-11-24T20:12:01.510Z,36.03
2017-11-24T20:14:29.368Z,40.97
2017-11-24T20:16:57.224Z,35.87
2017-11-24T20:19:25.127Z,42.20
2017-11-24T20:21:52.993Z,38.33
2017-11-24T20:24:21.191Z,49.67
2017-11-24T20:26:49.172Z,44.93
2017-11-24T20:29:17.158Z,51.93
2017-11-24T20:31:45.326Z,42.93
2017-11-24T20:34:13.262Z,44.00
2017-11-24T20:36:42.257Z,38.77
2017-11-24T20:39:10.701Z,48.90
2017-11-24T20:41:38.685Z,49.77
2017-11-24T20:44:07.543Z,48.17
2017-11-24T20:46:39.494Z,39.83
2017-11-24T20:49:08.256Z,47.40
2017-11-24T20:51:36.115Z,41.57
2017-11-24T20:54:04.370Z,40.60
2017-11-24T20:56:32.225Z,54.73
2017-11-24T20:59:00.094Z,37.17
2017-11-24T21:01:28.012Z,42.90
2017-11-24T21:03:55.891Z,42.53
2017-11-24T21:06:23.863Z,38.07
2017-11-24T21:08:51.915Z,34.80
2017-11-24T21:11:19.894Z,52.53
2017-11-24T21:13:47.814Z,42.33
2017-11-24T21:16:15.776Z,45.30
2017-11-24T21:18:43.674Z,44.00
2017-11-24T21:21:11.768Z,47.00
2017-11-24T21:23:39.713Z,50.83
2017-11-24T21:26:07.967Z,57.00
2017-11-24T21:28:35.875Z,60.50
2017-11-24T21:31:03.922Z,61.53
2017-11-24T21:33:31.777Z,64.13
2017-11-24T21:35:59.659Z,55.03
2017-11-24T21:38:27.585Z,47.07
2017-11-24T21:40:55.576Z,58.83
2017-11-24T21:43:23.500Z,49.70
2017-11-24T21:45:52.319Z,75.93
2017-11-24T21:48:21.321Z,51.20
2017-11-24T21:50:49.193Z,45.13
2017-11-24T21:53:17.146Z,50.77
2017-11-24T21:55:45.014Z,51.63
2017-11-24T21:58:12.854Z,64.30
2017-11-24T22:00:41.044Z,60.77
2017-11-24T22:03:08.941Z,58.07
2017-11-24T22:05:36.774Z,52.43
2017-11-24T22:08:04.749Z,54.90
2017-11-24T22:10:32.623Z,51.60
2017-11-24T22:13:00.491Z,67.97
2017-11-24T22:15:28.362Z,55.20
2017-11-24T22:17:56.218Z,54.27
2017-11-24T22:20:24.082Z,51.30
2017-11-24T22:22:52.122Z,55.10
2017-11-24T22:25:20.043Z,50.83
2017-11-24T22:27:47.893Z,46.77
2017-11-24T22:30:16.021Z,39.53
2017-11-24T22:32:43.993Z,39.10
2017-11-24T22:35:12.133Z,49.33
2017-11-24T22:37:40.034Z,46.30
2017-11-24T22:40:07.884Z,55.50
2017-11-24T22:42:35.826Z,47.70
2017-11-24T22:45:03.739Z,41.10
2017-11-24T22:47:31.699Z,49.83
2017-11-24T22:49:59.641Z,41.67
2017-11-24T22:52:27.492Z,43.97
2017-11-24T22:54:55.402Z,50.47
2017-11-24T22:57:23.437Z,59.00
2017-11-24T22:59:51.333Z,57.00
2017-11-24T23:02:19.200Z,55.17
2017-11-24T23:04:47.110Z,50.87
2017-11-24T23:07:15.050Z,60.13
2017-11-24T23:09:42.916Z,58.40
2017-11-24T23:12:11.838Z,53.63
2017-11-24T23:14:39.719Z,57.30
2017-11-24T23:17:07.664Z,58.83
2017-11-24T23:19:35.553Z,66.93
2017-11-24T23:22:03.435Z,74.37
2017-11-24T23:24:31.364Z,64.90
2017-11-24T23:26:59.245Z,59.50
2017-11-24T23:29:27.127Z,62.80
2017-11-24T23:31:55.009Z,63.97
2017-11-24T23:34:23.095Z,67.73
2017-11-24T23:36:51.007Z,68.70
2017-11-24T23:39:18.873Z,73.07
2017-11-24T23:41:46.929Z,76.00
2017-11-24T23:44:14.874Z,65.20
2017-11-24T23:46:42.793Z,65.43
2017-11-24T23:49:10.738Z,72.63
2017-11-24T23:51:38.584Z,63.37
2017-11-24T23:54:06.421Z,70.70
2017-11-24T23:56:34.301Z,68.03
2017-11-24T23:59:02.173Z,65.30
